createdAt,value
2022-11-07T00:02:11.386Z,8.10
2022-11-07T00:04:40.095Z,8.10
2022-11-07T00:07:10.006Z,8.20
2022-11-07T00:09:38.235Z,8.10
2022-11-07T00:12:08.139Z,8.10
2022-11-07T00:14:36.385Z,8.10
2022-11-07T00:17:04.567Z,8.10
2022-11-07T00:19:32.811Z,8.10
2022-11-07T00:22:01.066Z,8.10
2022-11-07T00:24:30.681Z,8.10
2022-11-07T00:26:58.955Z,8.10
2022-11-07T00:29:27.827Z,8.00
2022-11-07T00:31:56.035Z,8.00
2022-11-07T00:34:24.283Z,8.00
2022-11-07T00:36:52.463Z,8.00
2022-11-07T00:39:20.760Z,8.00
2022-11-07T00:41:50.446Z,7.90
2022-11-07T00:44:18.736Z,7.90
2022-11-07T00:46:47.055Z,7.80
2022-11-07T00:49:15.521Z,7.80
2022-11-07T00:51:43.718Z,7.80
2022-11-07T00:54:12.037Z,7.70
2022-11-07T00:56:40.237Z,7.60
2022-11-07T00:59:10.405Z,7.60
2022-11-07T01:01:38.641Z,7.60
2022-11-07T01:04:24.410Z,7.60
2022-11-07T01:06:52.685Z,7.50
2022-11-07T01:09:22.519Z,7.50
2022-11-07T01:11:51.527Z,7.50
2022-11-07T01:14:22.798Z,7.50
2022-11-07T01:16:51.916Z,7.40
2022-11-07T01:19:21.141Z,7.40
2022-11-07T01:21:49.425Z,7.50
2022-11-07T01:24:18.591Z,7.50
2022-11-07T01:26:48.911Z,7.40
2022-11-07T01:29:18.053Z,7.40
2022-11-07T01:31:47.776Z,7.50
2022-11-07T01:34:17.659Z,7.40
2022-11-07T01:36:46.263Z,7.50
2022-11-07T01:39:14.611Z,7.40
2022-11-07T01:41:42.893Z,7.40
2022-11-07T01:44:47.927Z,7.40
2022-11-07T01:47:17.688Z,7.30
2022-11-07T01:49:45.992Z,7.30
2022-11-07T01:52:18.190Z,7.30
2022-11-07T01:54:50.654Z,7.30
2022-11-07T01:57:23.284Z,7.30
2022-11-07T01:59:54.338Z,7.40
2022-11-07T02:02:24.977Z,7.30
2022-11-07T02:04:53.719Z,7.30
2022-11-07T02:07:23.955Z,7.30
2022-11-07T02:09:53.750Z,7.40
2022-11-07T02:12:24.111Z,7.40
2022-11-07T02:14:52.415Z,7.40
2022-11-07T02:17:20.849Z,7.30
2022-11-07T02:19:52.056Z,7.30
2022-11-07T02:22:28.766Z,7.40
2022-11-07T02:25:01.102Z,7.40
2022-11-07T02:27:32.709Z,7.30
2022-11-07T02:30:04.471Z,7.30
2022-11-07T02:32:32.986Z,7.40
2022-11-07T02:35:03.555Z,7.30
2022-11-07T02:37:33.787Z,7.40
2022-11-07T02:40:06.678Z,7.40
2022-11-07T02:42:44.369Z,7.40
2022-11-07T02:45:15.074Z,7.40
2022-11-07T02:47:43.636Z,7.40
2022-11-07T02:50:15.088Z,7.50
2022-11-07T02:52:43.707Z,7.40
2022-11-07T02:55:15.473Z,7.40
2022-11-07T02:57:44.139Z,7.40
2022-11-07T03:00:14.845Z,7.40
2022-11-07T03:02:47.031Z,7.40
2022-11-07T03:05:16.136Z,7.50
2022-11-07T03:07:44.700Z,7.50
2022-11-07T03:10:14.650Z,7.50
2022-11-07T03:12:43.082Z,7.50
2022-11-07T03:15:12.853Z,7.60
2022-11-07T03:17:41.117Z,7.50
2022-11-07T03:20:10.758Z,7.50
2022-11-07T03:22:39.318Z,7.60
2022-11-07T03:25:08.611Z,7.50
2022-11-07T03:27:46.130Z,7.50
2022-11-07T03:30:14.665Z,7.50
2022-11-07T03:32:42.862Z,7.50
2022-11-07T03:35:11.274Z,7.50
2022-11-07T03:37:39.450Z,7.50
2022-11-07T03:40:08.967Z,7.50
2022-11-07T03:42:41.015Z,7.40
2022-11-07T03:45:10.769Z,7.50
2022-11-07T03:47:41.073Z,7.50
2022-11-07T03:50:11.400Z,7.50
2022-11-07T03:52:39.760Z,7.50
2022-11-07T03:55:09.073Z,7.50
2022-11-07T03:57:37.302Z,7.60
2022-11-07T04:00:08.291Z,7.60
2022-11-07T04:02:43.403Z,7.60
2022-11-07T04:05:11.919Z,7.60
2022-11-07T04:07:40.197Z,7.50
2022-11-07T04:10:08.563Z,7.60
2022-11-07T04:12:54.251Z,7.60
2022-11-07T04:15:41.105Z,7.60
2022-11-07T04:18:09.324Z,7.60
2022-11-07T04:20:37.666Z,7.60
2022-11-07T04:23:05.824Z,7.60
2022-11-07T04:25:51.635Z,7.60
2022-11-07T04:28:19.965Z,7.60
2022-11-07T04:30:49.456Z,7.70
2022-11-07T04:33:18.286Z,7.70
2022-11-07T04:35:46.511Z,7.60
2022-11-07T04:38:14.804Z,7.70
2022-11-07T04:40:42.958Z,7.70
2022-11-07T04:43:11.671Z,7.80
2022-11-07T04:45:40.337Z,7.80
2022-11-07T04:48:12.744Z,7.80
2022-11-07T04:50:41.593Z,7.90
2022-11-07T04:53:13.181Z,7.90
2022-11-07T04:55:41.882Z,7.90
2022-11-07T04:58:10.123Z,8.00
2022-11-07T05:00:38.791Z,8.00
2022-11-07T05:03:07.025Z,8.00
2022-11-07T05:05:36.651Z,8.00
2022-11-07T05:08:05.064Z,8.00
2022-11-07T05:10:33.517Z,8.00
2022-11-07T05:13:01.790Z,8.00
2022-11-07T05:15:29.961Z,8.00
2022-11-07T05:17:58.209Z,8.00
2022-11-07T05:20:32.543Z,8.00
2022-11-07T05:23:15.129Z,8.10
2022-11-07T05:25:45.792Z,8.10
2022-11-07T05:28:16.144Z,8.00
2022-11-07T05:30:46.159Z,8.10
2022-11-07T05:33:16.749Z,8.00
2022-11-07T05:35:45.956Z,8.00
2022-11-07T05:38:15.631Z,8.00
2022-11-07T05:40:44.020Z,8.00
2022-11-07T05:43:14.349Z,8.00
2022-11-07T05:45:43.208Z,8.00
2022-11-07T05:48:13.589Z,8.00
2022-11-07T05:50:42.349Z,8.00
2022-11-07T05:53:10.572Z,8.00
2022-11-07T05:55:40.288Z,8.00
2022-11-07T05:58:12.622Z,8.00
2022-11-07T06:00:41.200Z,8.00
2022-11-07T06:03:10.111Z,8.00
2022-11-07T06:05:39.252Z,8.00
2022-11-07T06:08:08.243Z,7.90
2022-11-07T06:10:37.733Z,8.00
2022-11-07T06:13:09.113Z,8.00
2022-11-07T06:15:38.814Z,7.90
2022-11-07T06:18:09.125Z,8.00
2022-11-07T06:20:38.104Z,8.00
2022-11-07T06:23:07.423Z,8.00
2022-11-07T06:25:36.910Z,8.10
2022-11-07T06:28:09.483Z,8.10
2022-11-07T06:30:37.982Z,8.10
2022-11-07T06:33:08.186Z,8.10
2022-11-07T06:35:36.910Z,8.10
2022-11-07T06:38:06.912Z,8.20
2022-11-07T06:40:35.228Z,8.20
2022-11-07T06:43:08.919Z,8.30
2022-11-07T06:45:37.574Z,8.30
2022-11-07T06:48:06.099Z,8.40
2022-11-07T06:50:35.209Z,8.40
2022-11-07T06:53:07.564Z,8.50
2022-11-07T06:55:36.333Z,8.50
2022-11-07T06:58:05.513Z,8.50
2022-11-07T07:00:37.563Z,8.60
2022-11-07T07:03:06.433Z,8.60
2022-11-07T07:05:35.502Z,8.70
2022-11-07T07:08:04.292Z,8.70
2022-11-07T07:10:35.893Z,8.80
2022-11-07T07:13:04.192Z,8.90
2022-11-07T07:15:49.407Z,9.10
2022-11-07T07:18:20.395Z,9.20
2022-11-07T07:20:49.146Z,9.30
2022-11-07T07:23:17.972Z,9.40
2022-11-07T07:25:46.617Z,9.40
2022-11-07T07:28:14.909Z,9.50
2022-11-07T07:30:47.325Z,9.50
2022-11-07T07:33:19.450Z,9.70
2022-11-07T07:35:48.152Z,9.70
2022-11-07T07:38:16.556Z,9.80
2022-11-07T07:40:44.804Z,10.00
2022-11-07T07:43:13.315Z,10.20
2022-11-07T07:45:42.299Z,10.30
2022-11-07T07:48:10.596Z,10.30
2022-11-07T07:50:40.429Z,10.30
2022-11-07T07:53:09.513Z,10.30
2022-11-07T07:55:37.825Z,10.30
2022-11-07T07:58:06.094Z,10.20
2022-11-07T08:00:34.621Z,10.20
2022-11-07T08:03:03.579Z,10.20
2022-11-07T08:05:32.012Z,10.20
2022-11-07T08:08:01.966Z,10.30
2022-11-07T08:10:45.725Z,10.30
2022-11-07T08:13:14.870Z,10.40
2022-11-07T08:15:43.326Z,10.50
2022-11-07T08:18:11.629Z,10.50
2022-11-07T08:20:39.885Z,10.50
2022-11-07T08:23:16.327Z,10.50
2022-11-07T08:25:50.021Z,10.70
2022-11-07T08:28:18.364Z,11.10
2022-11-07T08:30:46.718Z,11.50
2022-11-07T08:33:15.289Z,11.80
2022-11-07T08:35:43.785Z,12.00
2022-11-07T08:38:13.662Z,12.10
2022-11-07T08:40:41.945Z,12.10
2022-11-07T08:43:10.142Z,12.00
2022-11-07T08:45:38.487Z,12.00
2022-11-07T08:48:07.471Z,12.00
2022-11-07T08:50:35.756Z,11.90
2022-11-07T08:53:03.984Z,11.80
2022-11-07T08:55:33.802Z,11.80
2022-11-07T08:58:03.275Z,11.70
2022-11-07T09:00:32.163Z,11.70
2022-11-07T09:05:51.090Z,11.80
2022-11-07T09:08:19.273Z,11.70
2022-11-07T09:10:48.885Z,11.90
2022-11-07T09:13:17.356Z,12.10
2022-11-07T09:15:50.628Z,12.70
2022-11-07T09:18:20.350Z,13.40
2022-11-07T09:20:48.952Z,13.90
2022-11-07T09:23:17.403Z,14.10
2022-11-07T09:25:45.900Z,14.50
2022-11-07T09:28:15.956Z,14.80
2022-11-07T09:30:44.378Z,14.90
2022-11-07T09:33:12.695Z,14.80
2022-11-07T09:35:41.149Z,14.70
2022-11-07T09:38:09.347Z,14.60
2022-11-07T09:40:46.025Z,14.70
2022-11-07T09:43:31.849Z,14.80
2022-11-07T09:46:11.004Z,15.20
2022-11-07T09:48:45.301Z,15.70
2022-11-07T09:51:20.552Z,15.80
2022-11-07T09:53:57.463Z,15.30
2022-11-07T09:56:26.072Z,14.60
2022-11-07T09:58:57.626Z,14.20
2022-11-07T10:01:29.884Z,14.00
2022-11-07T10:04:23.500Z,14.00
2022-11-07T10:06:50.855Z,14.10
2022-11-07T10:09:25.759Z,14.20
2022-11-07T10:12:02.270Z,14.50
2022-11-07T10:14:48.125Z,14.50
2022-11-07T10:17:24.040Z,14.30
2022-11-07T10:20:12.600Z,14.00
2022-11-07T10:22:53.846Z,13.70
2022-11-07T10:25:27.728Z,13.60
2022-11-07T10:28:09.215Z,13.60
2022-11-07T10:30:39.273Z,13.60
2022-11-07T10:33:17.944Z,13.70
2022-11-07T10:35:51.644Z,14.10
2022-11-07T10:38:26.215Z,14.40
2022-11-07T10:40:54.906Z,14.80
2022-11-07T10:43:32.970Z,15.10
2022-11-07T10:46:03.652Z,15.20
2022-11-07T10:48:33.240Z,15.30
2022-11-07T10:51:01.535Z,15.30
2022-11-07T10:53:30.152Z,15.40
2022-11-07T10:55:59.809Z,15.30
2022-11-07T10:58:31.197Z,15.20
2022-11-07T11:01:04.452Z,15.20
2022-11-07T11:03:44.430Z,15.20
2022-11-07T11:06:28.105Z,15.10
2022-11-07T11:08:56.312Z,15.10
2022-11-07T11:11:32.392Z,14.90
2022-11-07T11:14:21.611Z,14.90
2022-11-07T11:16:54.663Z,14.80
2022-11-07T11:19:26.293Z,14.90
2022-11-07T11:21:58.671Z,15.00
2022-11-07T11:24:32.891Z,15.00
2022-11-07T11:27:05.844Z,15.00
2022-11-07T11:29:41.541Z,14.90
2022-11-07T11:32:21.423Z,14.80
2022-11-07T11:35:03.926Z,14.70
2022-11-07T11:37:34.854Z,14.50
2022-11-07T11:40:14.208Z,14.30
2022-11-07T11:42:50.168Z,14.20
2022-11-07T11:45:22.848Z,14.10
2022-11-07T11:48:00.526Z,13.90
2022-11-07T11:50:36.960Z,13.70
2022-11-07T11:53:05.562Z,13.60
2022-11-07T11:55:45.273Z,13.50
2022-11-07T11:58:29.507Z,13.40
2022-11-07T12:01:08.700Z,13.30
2022-11-07T12:03:50.187Z,13.10
2022-11-07T12:06:22.368Z,13.00
2022-11-07T12:09:17.168Z,12.80
2022-11-07T12:11:58.819Z,12.80
2022-11-07T12:15:01.338Z,12.70
2022-11-07T12:17:41.962Z,12.60
2022-11-07T12:20:19.537Z,12.50
2022-11-07T12:23:02.073Z,12.60
2022-11-07T12:25:33.930Z,12.60
2022-11-07T12:28:11.940Z,12.60
2022-11-07T12:30:52.691Z,12.60
2022-11-07T12:33:30.582Z,12.50
2022-11-07T12:36:04.039Z,12.50
2022-11-07T12:38:58.168Z,12.50
2022-11-07T12:41:36.713Z,12.50
2022-11-07T12:44:20.919Z,12.60
2022-11-07T12:46:54.036Z,12.60
2022-11-07T12:49:46.667Z,12.70
2022-11-07T12:52:27.157Z,12.70
2022-11-07T12:55:01.518Z,12.80
2022-11-07T12:57:33.245Z,12.90
2022-11-07T13:00:06.508Z,13.00
2022-11-07T13:02:57.513Z,13.10
2022-11-07T13:05:43.235Z,13.10
2022-11-07T13:08:18.531Z,13.10
2022-11-07T13:10:54.458Z,13.10
2022-11-07T13:13:29.059Z,13.10
2022-11-07T13:16:15.596Z,13.10
2022-11-07T13:18:44.293Z,13.00
2022-11-07T13:21:12.643Z,13.00
2022-11-07T13:23:42.182Z,13.10
2022-11-07T13:26:44.600Z,13.10
2022-11-07T13:29:00.257Z,13.10
2022-11-07T13:31:35.044Z,13.10
2022-11-07T13:34:24.871Z,13.00
2022-11-07T13:37:00.289Z,13.00
2022-11-07T13:39:31.534Z,12.90
2022-11-07T13:42:00.935Z,12.90
2022-11-07T13:44:33.941Z,12.90
2022-11-07T13:47:05.610Z,12.90
2022-11-07T13:49:43.157Z,12.90
2022-11-07T13:52:18.656Z,13.00
2022-11-07T13:54:54.479Z,13.00
2022-11-07T13:57:28.383Z,12.90
2022-11-07T14:00:00.751Z,13.00
2022-11-07T14:02:30.821Z,13.00
2022-11-07T14:05:19.506Z,13.00
2022-11-07T14:07:50.444Z,13.10
2022-11-07T14:10:26.768Z,13.10
2022-11-07T14:13:01.387Z,13.10
2022-11-07T14:15:30.442Z,13.00
2022-11-07T14:17:58.895Z,12.90
2022-11-07T14:20:27.295Z,12.90
2022-11-07T14:22:57.101Z,12.90
2022-11-07T14:25:29.930Z,12.80
2022-11-07T14:27:58.970Z,12.80
2022-11-07T14:30:28.661Z,12.70
2022-11-07T14:32:58.306Z,12.60
2022-11-07T14:35:33.445Z,12.60
2022-11-07T14:38:10.433Z,12.50
2022-11-07T14:40:42.193Z,12.40
2022-11-07T14:43:14.564Z,12.30
2022-11-07T14:46:11.335Z,12.30
2022-11-07T14:48:35.140Z,12.30
2022-11-07T14:51:05.380Z,12.30
2022-11-07T14:53:39.322Z,12.20
2022-11-07T14:56:14.217Z,12.20
2022-11-07T14:58:42.620Z,12.10
2022-11-07T15:01:15.808Z,12.00
2022-11-07T15:03:55.963Z,12.10
2022-11-07T15:06:29.423Z,12.00
2022-11-07T15:09:00.212Z,12.00
2022-11-07T15:11:32.893Z,11.90
2022-11-07T15:14:02.797Z,11.90
2022-11-07T15:16:35.113Z,11.90
2022-11-07T15:19:05.673Z,11.90
2022-11-07T15:21:35.904Z,11.90
2022-11-07T15:24:26.875Z,11.80
2022-11-07T15:27:04.176Z,11.80
2022-11-07T15:29:34.409Z,11.70
2022-11-07T15:32:15.332Z,11.70
2022-11-07T15:37:32.626Z,11.70
2022-11-07T15:40:00.961Z,11.70
2022-11-07T15:42:30.631Z,11.70
2022-11-07T15:44:58.854Z,11.70
2022-11-07T15:47:27.096Z,11.70
2022-11-07T15:49:55.742Z,11.60
2022-11-07T15:52:23.945Z,11.70
2022-11-07T15:54:52.167Z,11.60
2022-11-07T15:57:20.765Z,11.60
2022-11-07T15:59:50.620Z,11.60
2022-11-07T16:02:19.358Z,11.60
2022-11-07T16:04:47.789Z,11.50
2022-11-07T16:07:18.624Z,11.40
2022-11-07T16:09:48.727Z,11.40
2022-11-07T16:12:18.544Z,11.40
2022-11-07T16:14:46.767Z,11.40
2022-11-07T16:17:18.130Z,11.30
2022-11-07T16:19:47.204Z,11.30
2022-11-07T16:22:16.979Z,11.30
2022-11-07T16:24:45.245Z,11.20
2022-11-07T16:27:18.303Z,11.20
2022-11-07T16:29:46.682Z,11.10
2022-11-07T16:32:18.600Z,11.10
2022-11-07T16:34:47.743Z,11.00
2022-11-07T16:37:15.937Z,11.00
2022-11-07T16:39:44.450Z,10.90
2022-11-07T16:42:16.740Z,10.80
2022-11-07T16:44:46.867Z,10.80
2022-11-07T16:47:19.047Z,10.80
2022-11-07T16:49:49.072Z,10.70
2022-11-07T16:52:20.983Z,10.70
2022-11-07T16:54:49.244Z,10.70
2022-11-07T16:57:19.097Z,10.70
2022-11-07T16:59:47.767Z,10.70
2022-11-07T17:02:21.679Z,10.60
2022-11-07T17:04:54.848Z,10.60
2022-11-07T17:07:26.436Z,10.60
2022-11-07T17:09:54.662Z,10.60
2022-11-07T17:12:24.129Z,10.60
2022-11-07T17:14:52.673Z,10.60
2022-11-07T17:17:22.737Z,10.60
2022-11-07T17:19:51.043Z,10.60
2022-11-07T17:22:20.032Z,10.60
2022-11-07T17:24:48.228Z,10.60
2022-11-07T17:27:22.827Z,10.60
2022-11-07T17:29:51.994Z,10.70
2022-11-07T17:32:20.218Z,10.70
2022-11-07T17:35:10.569Z,10.70
2022-11-07T17:37:38.634Z,10.70
2022-11-07T17:40:09.013Z,10.70
2022-11-07T17:42:38.398Z,10.70
2022-11-07T17:45:07.858Z,10.80
2022-11-07T17:47:36.042Z,10.80
2022-11-07T17:50:06.497Z,10.80
2022-11-07T17:52:34.759Z,10.80
2022-11-07T17:55:03.055Z,10.90
2022-11-07T17:57:31.519Z,10.90
2022-11-07T17:59:59.723Z,10.90
2022-11-07T18:02:28.216Z,10.90
2022-11-07T18:04:56.521Z,10.90
2022-11-07T18:07:26.139Z,11.00
2022-11-07T18:09:54.906Z,11.00
2022-11-07T18:12:23.558Z,11.00
2022-11-07T18:14:51.776Z,11.00
2022-11-07T18:17:20.815Z,11.10
2022-11-07T18:19:49.440Z,11.10
2022-11-07T18:22:17.760Z,11.10
2022-11-07T18:24:47.508Z,11.10
2022-11-07T18:27:15.804Z,11.10
2022-11-07T18:29:44.190Z,11.10
2022-11-07T18:32:12.443Z,11.20
2022-11-07T18:34:40.771Z,11.20
2022-11-07T18:37:09.057Z,11.20
2022-11-07T18:39:37.428Z,11.20
2022-11-07T18:42:07.351Z,11.20
2022-11-07T18:44:35.701Z,11.20
2022-11-07T18:47:04.342Z,11.10
2022-11-07T18:49:32.937Z,11.20
2022-11-07T18:52:01.240Z,11.10
2022-11-07T18:54:30.126Z,11.20
2022-11-07T18:57:01.037Z,11.20
2022-11-07T18:59:30.953Z,11.20
2022-11-07T19:02:01.767Z,11.20
2022-11-07T19:04:30.101Z,11.20
2022-11-07T19:06:58.409Z,11.20
2022-11-07T19:09:28.500Z,11.20
2022-11-07T19:11:56.915Z,11.20
2022-11-07T19:14:25.350Z,11.10
2022-11-07T19:16:55.498Z,11.10
2022-11-07T19:19:24.044Z,11.00
2022-11-07T19:21:52.256Z,11.00
2022-11-07T19:24:20.465Z,10.90
2022-11-07T19:26:48.846Z,10.90
2022-11-07T19:29:17.379Z,10.90
2022-11-07T19:31:45.793Z,10.80
2022-11-07T19:34:16.937Z,10.70
2022-11-07T19:36:45.225Z,10.70
2022-11-07T19:39:13.721Z,10.70
2022-11-07T19:41:41.966Z,10.60
2022-11-07T19:44:10.195Z,10.60
2022-11-07T19:46:38.519Z,10.60
2022-11-07T19:49:06.909Z,10.60
2022-11-07T19:51:36.776Z,10.60
2022-11-07T19:54:07.001Z,10.60
2022-11-07T19:56:35.374Z,10.70
2022-11-07T19:59:03.771Z,10.70
2022-11-07T20:01:34.282Z,10.70
2022-11-07T20:04:04.349Z,10.70
2022-11-07T20:06:37.566Z,10.70
2022-11-07T20:09:07.358Z,10.70
2022-11-07T20:11:35.843Z,10.70
2022-11-07T20:14:04.468Z,10.60
2022-11-07T20:16:33.592Z,10.60
2022-11-07T20:19:02.334Z,10.70
2022-11-07T20:21:31.237Z,10.60
2022-11-07T20:24:01.484Z,10.70
2022-11-07T20:26:32.699Z,10.70
2022-11-07T20:29:01.273Z,10.70
2022-11-07T20:31:32.808Z,10.70
2022-11-07T20:34:02.725Z,10.70
2022-11-07T20:36:33.083Z,10.70
2022-11-07T20:39:06.249Z,10.70
2022-11-07T20:41:34.727Z,10.70
2022-11-07T20:44:05.769Z,10.70
2022-11-07T20:46:36.083Z,10.70
2022-11-07T20:49:07.669Z,10.70
2022-11-07T20:51:36.094Z,10.60
2022-11-07T20:54:05.870Z,10.60
2022-11-07T20:56:34.817Z,10.60
2022-11-07T20:59:03.045Z,10.60
2022-11-07T21:01:35.884Z,10.60
2022-11-07T21:04:05.130Z,10.50
2022-11-07T21:06:34.083Z,10.50
2022-11-07T21:09:02.724Z,10.40
2022-11-07T21:11:32.751Z,10.40
2022-11-07T21:14:01.521Z,10.40
2022-11-07T21:16:30.469Z,10.40
2022-11-07T21:18:58.745Z,10.40
2022-11-07T21:21:29.399Z,10.50
2022-11-07T21:23:58.907Z,10.50
2022-11-07T21:26:30.738Z,10.40
2022-11-07T21:29:01.771Z,10.40
2022-11-07T21:31:31.450Z,10.40
2022-11-07T21:34:00.116Z,10.50
2022-11-07T21:36:30.165Z,10.40
2022-11-07T21:39:00.126Z,10.40
2022-11-07T21:41:29.019Z,10.40
2022-11-07T21:43:58.011Z,10.40
2022-11-07T21:46:30.414Z,10.40
2022-11-07T21:49:00.124Z,10.40
2022-11-07T21:51:30.268Z,10.50
2022-11-07T21:53:59.331Z,10.50
2022-11-07T21:56:29.290Z,10.40
2022-11-07T21:58:59.304Z,10.40
2022-11-07T22:01:35.364Z,10.40
2022-11-07T22:04:07.332Z,10.40
2022-11-07T22:06:38.403Z,10.40
2022-11-07T22:09:07.754Z,10.40
2022-11-07T22:11:36.114Z,10.40
2022-11-07T22:14:04.729Z,10.50
2022-11-07T22:16:34.674Z,10.50
2022-11-07T22:19:05.169Z,10.50
2022-11-07T22:21:35.808Z,10.50
2022-11-07T22:24:04.352Z,10.50
2022-11-07T22:26:32.738Z,10.50
2022-11-07T22:29:01.060Z,10.50
2022-11-07T22:31:31.122Z,10.50
2022-11-07T22:34:02.037Z,10.50
2022-11-07T22:36:30.849Z,10.50
2022-11-07T22:38:59.390Z,10.50
2022-11-07T22:41:29.446Z,10.50
2022-11-07T22:43:58.751Z,10.50
2022-11-07T22:46:29.719Z,10.50
2022-11-07T22:49:00.985Z,10.50
2022-11-07T22:51:31.355Z,10.50
2022-11-07T22:54:02.097Z,10.50
2022-11-07T22:56:31.124Z,10.50
2022-11-07T22:58:59.948Z,10.50
2022-11-07T23:01:32.183Z,10.50
2022-11-07T23:04:02.287Z,10.50
2022-11-07T23:06:31.423Z,10.40
2022-11-07T23:09:00.947Z,10.40
2022-11-07T23:11:48.422Z,10.40
2022-11-07T23:14:19.489Z,10.40
2022-11-07T23:16:49.386Z,10.40
2022-11-07T23:19:20.998Z,10.40
2022-11-07T23:21:51.027Z,10.40
2022-11-07T23:24:20.736Z,10.30
2022-11-07T23:26:49.350Z,10.30
2022-11-07T23:29:19.633Z,10.30
2022-11-07T23:31:49.939Z,10.30
2022-11-07T23:34:20.947Z,10.20
2022-11-07T23:36:52.271Z,10.20
2022-11-07T23:39:22.723Z,10.10
2022-11-07T23:41:51.219Z,10.10
2022-11-07T23:44:19.873Z,10.00
2022-11-07T23:47:06.158Z,10.00
2022-11-07T23:49:53.293Z,10.00
2022-11-07T23:52:21.633Z,10.00
2022-11-07T23:55:07.562Z,10.00
2022-11-07T23:57:57.115Z,9.90
